sensor_id;sensor_type;location;lat;lon;timestamp;P1;durP1;ratioP1;P2;durP2;ratioP2
32641;SDS011;19323;56.072;9.698;2022-08-27T00:00:31;1.50;;;1.02;;
32641;SDS011;19323;56.072;9.698;2022-08-27T00:02:57;1.42;;;1.30;;
32641;SDS011;19323;56.072;9.698;2022-08-27T00:05:24;1.38;;;1.17;;
32641;SDS011;19323;56.072;9.698;2022-08-27T00:07:50;1.65;;;1.05;;
32641;SDS011;19323;56.072;9.698;2022-08-27T00:10:19;1.25;;;1.08;;
32641;SDS011;19323;56.072;9.698;2022-08-27T00:12:48;2.95;;;1.35;;
32641;SDS011;19323;56.072;9.698;2022-08-27T00:15:15;1.60;;;1.00;;
32641;SDS011;19323;56.072;9.698;2022-08-27T00:17:43;1.20;;;1.00;;
32641;SDS011;19323;56.072;9.698;2022-08-27T00:20:12;1.08;;;0.98;;
32641;SDS011;19323;56.072;9.698;2022-08-27T00:22:41;1.20;;;1.00;;
32641;SDS011;19323;56.072;9.698;2022-08-27T00:25:08;1.33;;;1.00;;
32641;SDS011;19323;56.072;9.698;2022-08-27T00:27:35;1.27;;;1.17;;
32641;SDS011;19323;56.072;9.698;2022-08-27T00:30:03;2.80;;;1.23;;
32641;SDS011;19323;56.072;9.698;2022-08-27T00:32:34;2.75;;;1.70;;
32641;SDS011;19323;56.072;9.698;2022-08-27T00:35:05;1.50;;;0.90;;
32641;SDS011;19323;56.072;9.698;2022-08-27T00:37:32;1.33;;;1.10;;
32641;SDS011;19323;56.072;9.698;2022-08-27T00:39:59;1.23;;;1.13;;
32641;SDS011;19323;56.072;9.698;2022-08-27T00:42:27;1.23;;;1.10;;
32641;SDS011;19323;56.072;9.698;2022-08-27T00:44:56;1.40;;;1.30;;
32641;SDS011;19323;56.072;9.698;2022-08-27T00:47:24;1.42;;;1.00;;
32641;SDS011;19323;56.072;9.698;2022-08-27T00:49:57;2.55;;;1.05;;
32641;SDS011;19323;56.072;9.698;2022-08-27T00:52:29;1.10;;;0.80;;
32641;SDS011;19323;56.072;9.698;2022-08-27T00:55:06;1.42;;;0.90;;
32641;SDS011;19323;56.072;9.698;2022-08-27T00:57:37;1.60;;;1.05;;
32641;SDS011;19323;56.072;9.698;2022-08-27T01:00:07;2.05;;;1.85;;
32641;SDS011;19323;56.072;9.698;2022-08-27T01:02:36;1.88;;;1.00;;
32641;SDS011;19323;56.072;9.698;2022-08-27T01:05:05;1.30;;;1.20;;
32641;SDS011;19323;56.072;9.698;2022-08-27T01:07:35;3.60;;;0.85;;
32641;SDS011;19323;56.072;9.698;2022-08-27T01:10:09;1.13;;;0.90;;
32641;SDS011;19323;56.072;9.698;2022-08-27T01:12:46;1.05;;;0.80;;
32641;SDS011;19323;56.072;9.698;2022-08-27T01:15:19;1.02;;;0.80;;
32641;SDS011;19323;56.072;9.698;2022-08-27T01:17:48;1.27;;;0.70;;
32641;SDS011;19323;56.072;9.698;2022-08-27T01:20:24;1.55;;;1.45;;
32641;SDS011;19323;56.072;9.698;2022-08-27T01:23:06;2.42;;;1.25;;
32641;SDS011;19323;56.072;9.698;2022-08-27T01:25:34;1.23;;;0.90;;
32641;SDS011;19323;56.072;9.698;2022-08-27T01:28:02;1.75;;;0.82;;
32641;SDS011;19323;56.072;9.698;2022-08-27T01:30:30;2.00;;;1.30;;
32641;SDS011;19323;56.072;9.698;2022-08-27T01:32:57;1.50;;;1.15;;
32641;SDS011;19323;56.072;9.698;2022-08-27T01:35:23;1.70;;;1.10;;
32641;SDS011;19323;56.072;9.698;2022-08-27T01:37:51;1.13;;;0.60;;
32641;SDS011;19323;56.072;9.698;2022-08-27T01:40:22;1.42;;;0.90;;
32641;SDS011;19323;56.072;9.698;2022-08-27T01:42:50;0.98;;;0.80;;
32641;SDS011;19323;56.072;9.698;2022-08-27T01:45:21;1.42;;;0.73;;
32641;SDS011;19323;56.072;9.698;2022-08-27T01:47:53;2.00;;;0.93;;
32641;SDS011;19323;56.072;9.698;2022-08-27T01:50:21;1.80;;;1.13;;
32641;SDS011;19323;56.072;9.698;2022-08-27T01:52:50;1.15;;;0.98;;
32641;SDS011;19323;56.072;9.698;2022-08-27T01:55:19;1.30;;;0.80;;
32641;SDS011;19323;56.072;9.698;2022-08-27T01:57:50;0.80;;;0.80;;
32641;SDS011;19323;56.072;9.698;2022-08-27T02:00:23;1.42;;;0.82;;
32641;SDS011;19323;56.072;9.698;2022-08-27T02:02:51;1.55;;;1.05;;
32641;SDS011;19323;56.072;9.698;2022-08-27T02:05:18;2.50;;;1.08;;
32641;SDS011;19323;56.072;9.698;2022-08-27T02:07:45;1.42;;;0.70;;
32641;SDS011;19323;56.072;9.698;2022-08-27T02:10:13;1.30;;;0.90;;
32641;SDS011;19323;56.072;9.698;2022-08-27T02:12:42;2.45;;;0.70;;
32641;SDS011;19323;56.072;9.698;2022-08-27T02:15:09;2.78;;;0.90;;
32641;SDS011;19323;56.072;9.698;2022-08-27T02:17:36;1.35;;;0.80;;
32641;SDS011;19323;56.072;9.698;2022-08-27T02:20:05;1.00;;;0.68;;
32641;SDS011;19323;56.072;9.698;2022-08-27T02:22:34;1.30;;;0.88;;
32641;SDS011;19323;56.072;9.698;2022-08-27T02:25:00;1.35;;;1.00;;
32641;SDS011;19323;56.072;9.698;2022-08-27T02:27:27;1.77;;;1.00;;
32641;SDS011;19323;56.072;9.698;2022-08-27T02:29:54;1.65;;;0.80;;
32641;SDS011;19323;56.072;9.698;2022-08-27T02:32:20;2.05;;;0.75;;
32641;SDS011;19323;56.072;9.698;2022-08-27T02:34:57;1.65;;;0.80;;
32641;SDS011;19323;56.072;9.698;2022-08-27T02:37:24;1.15;;;0.70;;
32641;SDS011;19323;56.072;9.698;2022-08-27T02:39:51;0.82;;;0.63;;
32641;SDS011;19323;56.072;9.698;2022-08-27T02:42:18;2.10;;;1.15;;
32641;SDS011;19323;56.072;9.698;2022-08-27T02:44:44;1.23;;;0.77;;
32641;SDS011;19323;56.072;9.698;2022-08-27T02:47:11;1.20;;;0.65;;
32641;SDS011;19323;56.072;9.698;2022-08-27T02:49:38;1.48;;;0.70;;
32641;SDS011;19323;56.072;9.698;2022-08-27T02:52:04;1.00;;;0.70;;
32641;SDS011;19323;56.072;9.698;2022-08-27T02:54:31;2.55;;;0.50;;
32641;SDS011;19323;56.072;9.698;2022-08-27T02:56:58;1.25;;;0.60;;
32641;SDS011;19323;56.072;9.698;2022-08-27T02:59:25;0.93;;;0.68;;
32641;SDS011;19323;56.072;9.698;2022-08-27T03:01:51;1.05;;;0.55;;
32641;SDS011;19323;56.072;9.698;2022-08-27T03:04:18;3.08;;;1.42;;
32641;SDS011;19323;56.072;9.698;2022-08-27T03:06:45;1.90;;;1.20;;
32641;SDS011;19323;56.072;9.698;2022-08-27T03:09:12;0.77;;;0.40;;
32641;SDS011;19323;56.072;9.698;2022-08-27T03:11:38;1.38;;;0.60;;
32641;SDS011;19323;56.072;9.698;2022-08-27T03:14:06;2.00;;;1.20;;
32641;SDS011;19323;56.072;9.698;2022-08-27T03:16:34;1.00;;;0.50;;
32641;SDS011;19323;56.072;9.698;2022-08-27T03:19:02;0.80;;;0.68;;
32641;SDS011;19323;56.072;9.698;2022-08-27T03:21:33;1.88;;;1.27;;
32641;SDS011;19323;56.072;9.698;2022-08-27T03:24:03;1.42;;;0.70;;
32641;SDS011;19323;56.072;9.698;2022-08-27T03:29:03;1.40;;;0.82;;
32641;SDS011;19323;56.072;9.698;2022-08-27T03:31:30;0.77;;;0.47;;
32641;SDS011;19323;56.072;9.698;2022-08-27T03:33:58;0.93;;;0.50;;
32641;SDS011;19323;56.072;9.698;2022-08-27T03:36:27;1.60;;;0.70;;
32641;SDS011;19323;56.072;9.698;2022-08-27T03:38:55;1.35;;;0.65;;
32641;SDS011;19323;56.072;9.698;2022-08-27T03:41:22;1.38;;;0.63;;
32641;SDS011;19323;56.072;9.698;2022-08-27T03:44:09;1.88;;;0.57;;
32641;SDS011;19323;56.072;9.698;2022-08-27T03:46:43;1.42;;;0.55;;
32641;SDS011;19323;56.072;9.698;2022-08-27T03:49:09;0.80;;;0.60;;
32641;SDS011;19323;56.072;9.698;2022-08-27T03:51:38;1.58;;;0.63;;
32641;SDS011;19323;56.072;9.698;2022-08-27T03:54:05;1.40;;;0.75;;
32641;SDS011;19323;56.072;9.698;2022-08-27T03:56:31;1.48;;;0.55;;
32641;SDS011;19323;56.072;9.698;2022-08-27T03:59:04;0.95;;;0.60;;
32641;SDS011;19323;56.072;9.698;2022-08-27T04:01:31;1.13;;;0.47;;
32641;SDS011;19323;56.072;9.698;2022-08-27T04:03:59;3.33;;;0.98;;
32641;SDS011;19323;56.072;9.698;2022-08-27T04:06:25;1.95;;;0.57;;
32641;SDS011;19323;56.072;9.698;2022-08-27T04:08:53;2.38;;;0.57;;
32641;SDS011;19323;56.072;9.698;2022-08-27T04:11:20;2.70;;;0.70;;
32641;SDS011;19323;56.072;9.698;2022-08-27T04:13:47;1.67;;;1.05;;
32641;SDS011;19323;56.072;9.698;2022-08-27T04:16:13;1.00;;;0.90;;
32641;SDS011;19323;56.072;9.698;2022-08-27T04:18:40;2.08;;;0.70;;
32641;SDS011;19323;56.072;9.698;2022-08-27T04:21:10;1.48;;;0.70;;
32641;SDS011;19323;56.072;9.698;2022-08-27T04:23:40;1.48;;;0.60;;
32641;SDS011;19323;56.072;9.698;2022-08-27T04:26:07;1.52;;;0.68;;
32641;SDS011;19323;56.072;9.698;2022-08-27T04:28:36;6.00;;;0.82;;
32641;SDS011;19323;56.072;9.698;2022-08-27T04:31:04;2.70;;;0.80;;
32641;SDS011;19323;56.072;9.698;2022-08-27T04:33:41;2.40;;;0.95;;
32641;SDS011;19323;56.072;9.698;2022-08-27T04:36:16;2.15;;;0.80;;
32641;SDS011;19323;56.072;9.698;2022-08-27T04:38:43;2.17;;;0.90;;
32641;SDS011;19323;56.072;9.698;2022-08-27T04:41:09;3.42;;;0.57;;
32641;SDS011;19323;56.072;9.698;2022-08-27T04:43:45;1.77;;;0.80;;
32641;SDS011;19323;56.072;9.698;2022-08-27T04:46:18;1.25;;;0.77;;
32641;SDS011;19323;56.072;9.698;2022-08-27T04:48:45;1.05;;;0.50;;
32641;SDS011;19323;56.072;9.698;2022-08-27T04:51:14;1.88;;;0.95;;
32641;SDS011;19323;56.072;9.698;2022-08-27T04:53:42;1.50;;;0.77;;
32641;SDS011;19323;56.072;9.698;2022-08-27T04:56:11;1.10;;;0.77;;
32641;SDS011;19323;56.072;9.698;2022-08-27T04:58:40;2.47;;;0.60;;
32641;SDS011;19323;56.072;9.698;2022-08-27T05:01:08;1.55;;;0.47;;
32641;SDS011;19323;56.072;9.698;2022-08-27T05:03:40;4.20;;;1.08;;
32641;SDS011;19323;56.072;9.698;2022-08-27T05:06:06;1.77;;;0.95;;
32641;SDS011;19323;56.072;9.698;2022-08-27T05:08:33;1.40;;;0.82;;
32641;SDS011;19323;56.072;9.698;2022-08-27T05:10:59;1.00;;;0.55;;
32641;SDS011;19323;56.072;9.698;2022-08-27T05:13:27;2.20;;;1.10;;
32641;SDS011;19323;56.072;9.698;2022-08-27T05:15:58;2.53;;;0.85;;
32641;SDS011;19323;56.072;9.698;2022-08-27T05:18:27;1.10;;;0.80;;
32641;SDS011;19323;56.072;9.698;2022-08-27T05:20:53;2.05;;;1.08;;
32641;SDS011;19323;56.072;9.698;2022-08-27T05:23:22;1.05;;;0.60;;
32641;SDS011;19323;56.072;9.698;2022-08-27T05:25:50;1.73;;;1.02;;
32641;SDS011;19323;56.072;9.698;2022-08-27T05:28:18;2.75;;;0.70;;
32641;SDS011;19323;56.072;9.698;2022-08-27T05:30:54;2.58;;;1.05;;
32641;SDS011;19323;56.072;9.698;2022-08-27T05:33:27;2.03;;;0.90;;
32641;SDS011;19323;56.072;9.698;2022-08-27T05:35:56;1.27;;;0.65;;
32641;SDS011;19323;56.072;9.698;2022-08-27T05:38:25;1.63;;;0.75;;
32641;SDS011;19323;56.072;9.698;2022-08-27T05:41:06;2.95;;;1.05;;
32641;SDS011;19323;56.072;9.698;2022-08-27T05:43:36;1.50;;;0.65;;
32641;SDS011;19323;56.072;9.698;2022-08-27T05:46:14;2.42;;;1.15;;
32641;SDS011;19323;56.072;9.698;2022-08-27T05:48:42;1.75;;;0.70;;
32641;SDS011;19323;56.072;9.698;2022-08-27T05:51:13;2.20;;;0.85;;
32641;SDS011;19323;56.072;9.698;2022-08-27T05:53:52;1.80;;;0.93;;
32641;SDS011;19323;56.072;9.698;2022-08-27T05:56:21;3.13;;;0.85;;
32641;SDS011;19323;56.072;9.698;2022-08-27T05:58:49;2.17;;;0.70;;
32641;SDS011;19323;56.072;9.698;2022-08-27T06:01:37;2.17;;;1.15;;
32641;SDS011;19323;56.072;9.698;2022-08-27T06:04:06;1.75;;;0.98;;
32641;SDS011;19323;56.072;9.698;2022-08-27T06:06:35;1.40;;;0.43;;
32641;SDS011;19323;56.072;9.698;2022-08-27T06:09:03;1.83;;;0.68;;
32641;SDS011;19323;56.072;9.698;2022-08-27T06:11:30;2.92;;;0.95;;
32641;SDS011;19323;56.072;9.698;2022-08-27T06:13:56;1.60;;;0.82;;
32641;SDS011;19323;56.072;9.698;2022-08-27T06:16:23;2.22;;;1.15;;
32641;SDS011;19323;56.072;9.698;2022-08-27T06:18:50;1.83;;;0.85;;
32641;SDS011;19323;56.072;9.698;2022-08-27T06:21:17;3.50;;;1.10;;
32641;SDS011;19323;56.072;9.698;2022-08-27T06:23:49;4.80;;;0.90;;
32641;SDS011;19323;56.072;9.698;2022-08-27T06:26:17;1.60;;;1.27;;
32641;SDS011;19323;56.072;9.698;2022-08-27T06:28:45;1.35;;;0.80;;
32641;SDS011;19323;56.072;9.698;2022-08-27T06:31:13;2.17;;;0.90;;
32641;SDS011;19323;56.072;9.698;2022-08-27T06:33:43;14.75;;;1.20;;
32641;SDS011;19323;56.072;9.698;2022-08-27T06:36:12;2.70;;;1.23;;
32641;SDS011;19323;56.072;9.698;2022-08-27T06:38:40;1.77;;;0.80;;
32641;SDS011;19323;56.072;9.698;2022-08-27T06:41:09;3.85;;;1.17;;
32641;SDS011;19323;56.072;9.698;2022-08-27T06:43:49;2.10;;;1.00;;
32641;SDS011;19323;56.072;9.698;2022-08-27T06:46:16;3.65;;;0.75;;
32641;SDS011;19323;56.072;9.698;2022-08-27T06:48:45;1.52;;;1.00;;
32641;SDS011;19323;56.072;9.698;2022-08-27T06:51:19;3.47;;;1.30;;
32641;SDS011;19323;56.072;9.698;2022-08-27T06:53:49;2.30;;;0.98;;
32641;SDS011;19323;56.072;9.698;2022-08-27T06:56:17;2.00;;;0.90;;
32641;SDS011;19323;56.072;9.698;2022-08-27T06:58:44;3.95;;;0.98;;
32641;SDS011;19323;56.072;9.698;2022-08-27T07:01:12;3.10;;;0.82;;
32641;SDS011;19323;56.072;9.698;2022-08-27T07:03:43;3.20;;;1.00;;
32641;SDS011;19323;56.072;9.698;2022-08-27T07:06:11;3.13;;;1.20;;
32641;SDS011;19323;56.072;9.698;2022-08-27T07:08:39;1.70;;;1.00;;
32641;SDS011;19323;56.072;9.698;2022-08-27T07:11:07;2.35;;;0.80;;
32641;SDS011;19323;56.072;9.698;2022-08-27T07:13:36;2.95;;;0.80;;
32641;SDS011;19323;56.072;9.698;2022-08-27T07:16:08;3.33;;;1.30;;
32641;SDS011;19323;56.072;9.698;2022-08-27T07:18:37;2.30;;;0.87;;
32641;SDS011;19323;56.072;9.698;2022-08-27T07:21:06;1.77;;;0.90;;
32641;SDS011;19323;56.072;9.698;2022-08-27T07:23:34;2.17;;;0.77;;
32641;SDS011;19323;56.072;9.698;2022-08-27T07:26:05;1.77;;;0.80;;
32641;SDS011;19323;56.072;9.698;2022-08-27T07:28:34;2.72;;;0.90;;
32641;SDS011;19323;56.072;9.698;2022-08-27T07:31:01;6.25;;;1.17;;
32641;SDS011;19323;56.072;9.698;2022-08-27T07:33:28;2.78;;;0.70;;
32641;SDS011;19323;56.072;9.698;2022-08-27T07:35:54;2.03;;;0.95;;
32641;SDS011;19323;56.072;9.698;2022-08-27T07:38:21;2.38;;;1.25;;
32641;SDS011;19323;56.072;9.698;2022-08-27T07:40:48;2.20;;;1.20;;
32641;SDS011;19323;56.072;9.698;2022-08-27T07:43:17;3.17;;;0.73;;
32641;SDS011;19323;56.072;9.698;2022-08-27T07:46:02;1.88;;;0.70;;
32641;SDS011;19323;56.072;9.698;2022-08-27T07:48:30;2.58;;;1.20;;
32641;SDS011;19323;56.072;9.698;2022-08-27T07:51:02;8.18;;;1.85;;
32641;SDS011;19323;56.072;9.698;2022-08-27T07:53:31;7.57;;;1.70;;
32641;SDS011;19323;56.072;9.698;2022-08-27T07:56:04;6.65;;;1.20;;
32641;SDS011;19323;56.072;9.698;2022-08-27T07:58:33;5.50;;;1.75;;
32641;SDS011;19323;56.072;9.698;2022-08-27T08:01:00;2.83;;;1.13;;
32641;SDS011;19323;56.072;9.698;2022-08-27T08:03:27;7.55;;;2.38;;
32641;SDS011;19323;56.072;9.698;2022-08-27T08:05:54;3.67;;;1.00;;
32641;SDS011;19323;56.072;9.698;2022-08-27T08:08:22;4.82;;;1.13;;
32641;SDS011;19323;56.072;9.698;2022-08-27T08:10:55;7.35;;;1.00;;
32641;SDS011;19323;56.072;9.698;2022-08-27T08:13:22;5.55;;;1.35;;
32641;SDS011;19323;56.072;9.698;2022-08-27T08:15:49;4.13;;;0.90;;
32641;SDS011;19323;56.072;9.698;2022-08-27T08:18:16;2.10;;;0.95;;
32641;SDS011;19323;56.072;9.698;2022-08-27T08:20:45;6.55;;;1.00;;
32641;SDS011;19323;56.072;9.698;2022-08-27T08:23:23;4.05;;;1.40;;
32641;SDS011;19323;56.072;9.698;2022-08-27T08:25:50;3.00;;;1.25;;
32641;SDS011;19323;56.072;9.698;2022-08-27T08:28:16;5.38;;;0.82;;
32641;SDS011;19323;56.072;9.698;2022-08-27T08:30:43;4.65;;;1.02;;
32641;SDS011;19323;56.072;9.698;2022-08-27T08:33:11;6.75;;;1.67;;
32641;SDS011;19323;56.072;9.698;2022-08-27T08:35:39;4.35;;;1.30;;
32641;SDS011;19323;56.072;9.698;2022-08-27T08:38:06;5.80;;;1.10;;
32641;SDS011;19323;56.072;9.698;2022-08-27T08:40:34;1.83;;;0.60;;
32641;SDS011;19323;56.072;9.698;2022-08-27T08:43:05;3.28;;;1.02;;
32641;SDS011;19323;56.072;9.698;2022-08-27T08:45:35;2.67;;;0.47;;
32641;SDS011;19323;56.072;9.698;2022-08-27T08:48:07;2.67;;;0.90;;
32641;SDS011;19323;56.072;9.698;2022-08-27T08:51:01;4.22;;;1.38;;
32641;SDS011;19323;56.072;9.698;2022-08-27T08:53:47;3.33;;;1.00;;
32641;SDS011;19323;56.072;9.698;2022-08-27T08:59:02;3.50;;;1.10;;
32641;SDS011;19323;56.072;9.698;2022-08-27T09:01:41;9.20;;;1.30;;
32641;SDS011;19323;56.072;9.698;2022-08-27T09:04:10;3.80;;;1.35;;
32641;SDS011;19323;56.072;9.698;2022-08-27T09:06:52;3.20;;;1.10;;
32641;SDS011;19323;56.072;9.698;2022-08-27T09:11:59;6.03;;;1.88;;
32641;SDS011;19323;56.072;9.698;2022-08-27T09:14:57;2.53;;;1.00;;
32641;SDS011;19323;56.072;9.698;2022-08-27T09:17:30;3.72;;;1.17;;
32641;SDS011;19323;56.072;9.698;2022-08-27T09:19:56;3.35;;;1.02;;
32641;SDS011;19323;56.072;9.698;2022-08-27T09:23:10;2.17;;;0.82;;
32641;SDS011;19323;56.072;9.698;2022-08-27T09:25:31;1.90;;;1.45;;
32641;SDS011;19323;56.072;9.698;2022-08-27T09:28:00;4.55;;;1.10;;
32641;SDS011;19323;56.072;9.698;2022-08-27T09:30:32;2.63;;;0.77;;
32641;SDS011;19323;56.072;9.698;2022-08-27T09:33:07;4.03;;;1.40;;
32641;SDS011;19323;56.072;9.698;2022-08-27T09:35:41;2.58;;;1.05;;
32641;SDS011;19323;56.072;9.698;2022-08-27T09:38:09;3.95;;;0.88;;
32641;SDS011;19323;56.072;9.698;2022-08-27T09:40:48;3.10;;;1.38;;
32641;SDS011;19323;56.072;9.698;2022-08-27T09:43:22;1.80;;;0.77;;
32641;SDS011;19323;56.072;9.698;2022-08-27T09:45:57;2.10;;;0.90;;
32641;SDS011;19323;56.072;9.698;2022-08-27T09:48:43;3.20;;;0.93;;
32641;SDS011;19323;56.072;9.698;2022-08-27T09:51:15;2.72;;;1.02;;
32641;SDS011;19323;56.072;9.698;2022-08-27T09:59:08;2.75;;;0.98;;
32641;SDS011;19323;56.072;9.698;2022-08-27T10:04:49;2.22;;;0.70;;
32641;SDS011;19323;56.072;9.698;2022-08-27T10:07:35;2.90;;;1.15;;
32641;SDS011;19323;56.072;9.698;2022-08-27T10:15:36;2.70;;;1.05;;
32641;SDS011;19323;56.072;9.698;2022-08-27T10:18:25;1.58;;;0.93;;
32641;SDS011;19323;56.072;9.698;2022-08-27T10:21:10;1.33;;;0.75;;
32641;SDS011;19323;56.072;9.698;2022-08-27T10:23:54;2.90;;;1.02;;
32641;SDS011;19323;56.072;9.698;2022-08-27T10:26:29;2.38;;;0.95;;
32641;SDS011;19323;56.072;9.698;2022-08-27T10:37:42;3.47;;;1.02;;
32641;SDS011;19323;56.072;9.698;2022-08-27T10:40:28;4.95;;;1.23;;
32641;SDS011;19323;56.072;9.698;2022-08-27T10:43:22;2.40;;;1.08;;
32641;SDS011;19323;56.072;9.698;2022-08-27T10:54:36;4.88;;;1.10;;
32641;SDS011;19323;56.072;9.698;2022-08-27T10:57:54;2.95;;;1.48;;
32641;SDS011;19323;56.072;9.698;2022-08-27T11:01:14;4.90;;;0.95;;
32641;SDS011;19323;56.072;9.698;2022-08-27T11:03:35;2.20;;;1.10;;
32641;SDS011;19323;56.072;9.698;2022-08-27T11:06:42;1.80;;;0.77;;
32641;SDS011;19323;56.072;9.698;2022-08-27T11:09:48;3.92;;;1.25;;
32641;SDS011;19323;56.072;9.698;2022-08-27T11:11:56;1.98;;;1.23;;
32641;SDS011;19323;56.072;9.698;2022-08-27T11:14:57;3.53;;;0.93;;
32641;SDS011;19323;56.072;9.698;2022-08-27T11:17:34;2.35;;;1.08;;
32641;SDS011;19323;56.072;9.698;2022-08-27T11:22:36;1.80;;;1.08;;
32641;SDS011;19323;56.072;9.698;2022-08-27T11:27:57;1.63;;;0.93;;
32641;SDS011;19323;56.072;9.698;2022-08-27T11:30:34;4.55;;;0.90;;
32641;SDS011;19323;56.072;9.698;2022-08-27T11:33:29;1.30;;;0.90;;
32641;SDS011;19323;56.072;9.698;2022-08-27T11:36:17;2.42;;;1.30;;
32641;SDS011;19323;56.072;9.698;2022-08-27T11:42:01;1.20;;;1.05;;
32641;SDS011;19323;56.072;9.698;2022-08-27T11:44:38;2.33;;;1.00;;
32641;SDS011;19323;56.072;9.698;2022-08-27T11:47:09;1.15;;;0.68;;
32641;SDS011;19323;56.072;9.698;2022-08-27T11:49:46;2.45;;;0.65;;
32641;SDS011;19323;56.072;9.698;2022-08-27T11:52:20;2.58;;;1.13;;
32641;SDS011;19323;56.072;9.698;2022-08-27T11:54:48;5.70;;;1.48;;
32641;SDS011;19323;56.072;9.698;2022-08-27T11:57:34;1.92;;;0.75;;
32641;SDS011;19323;56.072;9.698;2022-08-27T12:02:55;1.42;;;0.68;;
32641;SDS011;19323;56.072;9.698;2022-08-27T12:05:33;2.38;;;0.82;;
32641;SDS011;19323;56.072;9.698;2022-08-27T12:13:40;1.80;;;1.00;;
32641;SDS011;19323;56.072;9.698;2022-08-27T12:19:44;1.67;;;1.13;;
32641;SDS011;19323;56.072;9.698;2022-08-27T12:22:06;3.90;;;1.05;;
32641;SDS011;19323;56.072;9.698;2022-08-27T12:25:01;3.80;;;0.90;;
32641;SDS011;19323;56.072;9.698;2022-08-27T12:27:29;3.67;;;1.10;;
32641;SDS011;19323;56.072;9.698;2022-08-27T12:29:59;1.13;;;0.65;;
32641;SDS011;19323;56.072;9.698;2022-08-27T12:32:52;1.20;;;0.68;;
32641;SDS011;19323;56.072;9.698;2022-08-27T12:35:30;1.35;;;1.00;;
32641;SDS011;19323;56.072;9.698;2022-08-27T12:43:22;1.40;;;0.82;;
32641;SDS011;19323;56.072;9.698;2022-08-27T12:45:55;1.97;;;1.23;;
32641;SDS011;19323;56.072;9.698;2022-08-27T12:48:28;1.35;;;0.80;;
32641;SDS011;19323;56.072;9.698;2022-08-27T12:51:01;1.75;;;0.93;;
32641;SDS011;19323;56.072;9.698;2022-08-27T13:04:52;0.85;;;0.65;;
32641;SDS011;19323;56.072;9.698;2022-08-27T13:07:29;0.63;;;0.63;;
32641;SDS011;19323;56.072;9.698;2022-08-27T13:13:10;2.10;;;0.90;;
32641;SDS011;19323;56.072;9.698;2022-08-27T13:15:47;1.55;;;0.70;;
32641;SDS011;19323;56.072;9.698;2022-08-27T13:18:16;1.48;;;0.80;;
32641;SDS011;19323;56.072;9.698;2022-08-27T13:20:43;1.40;;;0.57;;
32641;SDS011;19323;56.072;9.698;2022-08-27T13:23:19;1.35;;;0.60;;
32641;SDS011;19323;56.072;9.698;2022-08-27T13:26:13;3.15;;;0.98;;
32641;SDS011;19323;56.072;9.698;2022-08-27T13:28:40;2.17;;;0.98;;
32641;SDS011;19323;56.072;9.698;2022-08-27T13:31:08;1.80;;;0.93;;
32641;SDS011;19323;56.072;9.698;2022-08-27T13:33:36;1.48;;;0.80;;
32641;SDS011;19323;56.072;9.698;2022-08-27T13:36:04;1.77;;;0.60;;
32641;SDS011;19323;56.072;9.698;2022-08-27T13:38:33;1.33;;;0.80;;
32641;SDS011;19323;56.072;9.698;2022-08-27T13:41:11;1.48;;;0.82;;
32641;SDS011;19323;56.072;9.698;2022-08-27T13:43:47;3.00;;;1.00;;
32641;SDS011;19323;56.072;9.698;2022-08-27T13:46:19;1.10;;;0.63;;
32641;SDS011;19323;56.072;9.698;2022-08-27T13:48:50;1.40;;;0.68;;
32641;SDS011;19323;56.072;9.698;2022-08-27T13:51:37;1.52;;;1.00;;
32641;SDS011;19323;56.072;9.698;2022-08-27T13:54:07;1.50;;;0.82;;
32641;SDS011;19323;56.072;9.698;2022-08-27T14:01:57;3.40;;;0.95;;
32641;SDS011;19323;56.072;9.698;2022-08-27T14:04:33;1.20;;;0.70;;
32641;SDS011;19323;56.072;9.698;2022-08-27T14:07:14;1.60;;;1.27;;
32641;SDS011;19323;56.072;9.698;2022-08-27T14:09:52;0.40;;;0.25;;
32641;SDS011;19323;56.072;9.698;2022-08-27T14:12:28;1.35;;;0.70;;
32641;SDS011;19323;56.072;9.698;2022-08-27T14:15:11;0.93;;;0.60;;
32641;SDS011;19323;56.072;9.698;2022-08-27T14:17:45;2.47;;;1.15;;
32641;SDS011;19323;56.072;9.698;2022-08-27T14:20:13;1.60;;;1.00;;
32641;SDS011;19323;56.072;9.698;2022-08-27T14:22:41;1.10;;;0.85;;
32641;SDS011;19323;56.072;9.698;2022-08-27T14:25:09;0.98;;;0.60;;
32641;SDS011;19323;56.072;9.698;2022-08-27T14:27:36;1.25;;;0.80;;
32641;SDS011;19323;56.072;9.698;2022-08-27T14:30:09;2.72;;;0.90;;
32641;SDS011;19323;56.072;9.698;2022-08-27T14:32:38;1.90;;;0.90;;
32641;SDS011;19323;56.072;9.698;2022-08-27T14:35:07;1.27;;;0.90;;
32641;SDS011;19323;56.072;9.698;2022-08-27T14:37:39;1.30;;;0.85;;
32641;SDS011;19323;56.072;9.698;2022-08-27T14:40:07;1.30;;;0.80;;
32641;SDS011;19323;56.072;9.698;2022-08-27T14:42:35;2.35;;;1.00;;
32641;SDS011;19323;56.072;9.698;2022-08-27T14:45:02;1.67;;;1.08;;
32641;SDS011;19323;56.072;9.698;2022-08-27T14:47:30;1.25;;;0.70;;
32641;SDS011;19323;56.072;9.698;2022-08-27T14:49:59;1.65;;;1.02;;
32641;SDS011;19323;56.072;9.698;2022-08-27T14:52:26;1.50;;;0.68;;
32641;SDS011;19323;56.072;9.698;2022-08-27T14:54:52;1.55;;;0.88;;
32641;SDS011;19323;56.072;9.698;2022-08-27T14:57:19;1.60;;;0.50;;
32641;SDS011;19323;56.072;9.698;2022-08-27T14:59:47;1.23;;;0.93;;
32641;SDS011;19323;56.072;9.698;2022-08-27T15:02:14;4.90;;;0.90;;
32641;SDS011;19323;56.072;9.698;2022-08-27T15:04:44;4.50;;;1.38;;
32641;SDS011;19323;56.072;9.698;2022-08-27T15:07:13;3.83;;;1.30;;
32641;SDS011;19323;56.072;9.698;2022-08-27T15:09:39;3.05;;;1.38;;
32641;SDS011;19323;56.072;9.698;2022-08-27T15:12:06;2.63;;;1.23;;
32641;SDS011;19323;56.072;9.698;2022-08-27T15:14:42;3.65;;;0.85;;
32641;SDS011;19323;56.072;9.698;2022-08-27T15:17:09;2.97;;;1.20;;
32641;SDS011;19323;56.072;9.698;2022-08-27T15:19:56;5.57;;;5.13;;
32641;SDS011;19323;56.072;9.698;2022-08-27T15:22:23;5.43;;;5.05;;
32641;SDS011;19323;56.072;9.698;2022-08-27T15:24:54;3.30;;;3.00;;
32641;SDS011;19323;56.072;9.698;2022-08-27T15:27:23;3.50;;;3.20;;
32641;SDS011;19323;56.072;9.698;2022-08-27T15:30:04;3.20;;;2.90;;
32641;SDS011;19323;56.072;9.698;2022-08-27T15:32:34;4.95;;;2.90;;
32641;SDS011;19323;56.072;9.698;2022-08-27T15:35:06;2.05;;;1.85;;
32641;SDS011;19323;56.072;9.698;2022-08-27T15:37:37;2.13;;;1.85;;
32641;SDS011;19323;56.072;9.698;2022-08-27T15:40:04;1.90;;;1.77;;
32641;SDS011;19323;56.072;9.698;2022-08-27T15:42:31;2.05;;;1.23;;
32641;SDS011;19323;56.072;9.698;2022-08-27T15:44:57;1.70;;;1.40;;
32641;SDS011;19323;56.072;9.698;2022-08-27T15:47:24;1.40;;;1.25;;
32641;SDS011;19323;56.072;9.698;2022-08-27T15:49:50;1.85;;;1.70;;
32641;SDS011;19323;56.072;9.698;2022-08-27T15:52:19;2.03;;;0.73;;
32641;SDS011;19323;56.072;9.698;2022-08-27T15:54:47;2.38;;;1.27;;
32641;SDS011;19323;56.072;9.698;2022-08-27T15:57:15;1.30;;;0.90;;
32641;SDS011;19323;56.072;9.698;2022-08-27T15:59:43;1.73;;;1.15;;
32641;SDS011;19323;56.072;9.698;2022-08-27T16:02:13;1.13;;;0.82;;
32641;SDS011;19323;56.072;9.698;2022-08-27T16:04:42;1.48;;;1.15;;
32641;SDS011;19323;56.072;9.698;2022-08-27T16:07:14;1.83;;;0.82;;
32641;SDS011;19323;56.072;9.698;2022-08-27T16:09:45;1.25;;;1.08;;
32641;SDS011;19323;56.072;9.698;2022-08-27T16:12:11;0.93;;;0.70;;
32641;SDS011;19323;56.072;9.698;2022-08-27T16:14:52;2.47;;;0.82;;
32641;SDS011;19323;56.072;9.698;2022-08-27T16:17:19;1.25;;;0.80;;
32641;SDS011;19323;56.072;9.698;2022-08-27T16:19:46;2.75;;;0.70;;
32641;SDS011;19323;56.072;9.698;2022-08-27T16:22:13;1.13;;;0.80;;
32641;SDS011;19323;56.072;9.698;2022-08-27T16:24:41;1.60;;;0.68;;
32641;SDS011;19323;56.072;9.698;2022-08-27T16:27:07;1.20;;;0.82;;
32641;SDS011;19323;56.072;9.698;2022-08-27T16:29:34;2.03;;;0.88;;
32641;SDS011;19323;56.072;9.698;2022-08-27T16:32:00;1.90;;;0.98;;
32641;SDS011;19323;56.072;9.698;2022-08-27T16:34:27;1.73;;;0.90;;
32641;SDS011;19323;56.072;9.698;2022-08-27T16:36:54;1.60;;;1.00;;